Time;durP1;ratioP1;P1;durP2;ratioP2;P2;SDS_P1;SDS_P2;PMS_P1;PMS_P2;Temp;Humidity;BMP_temperature;BMP_pressure;BME280_temperature;BME280_humidity;BME280_pressure;Samples;Min_cycle;Max_cycle;Signal;HPM_P1;HPM_P2
2022/11/14 00:02:09;;;;;;;10.37;7.87;;;;;;;;;;5012803;28;20598;-82
2022/11/14 00:04:38;;;;;;;14.97;9.47;;;;;;;;;;5013504;28;20231;-82
2022/11/14 00:07:05;;;;;;;12.60;9.97;;;;;;;;;;5012445;28;20235;-82
2022/11/14 00:09:32;;;;;;;13.53;9.10;;;;;;;;;;5013141;28;20188;-81
2022/11/14 00:11:59;;;;;;;13.60;9.00;;;;;;;;;;5012867;28;20321;-82
2022/11/14 00:14:26;;;;;;;13.47;8.97;;;;;;;;;;5013137;28;20223;-82
2022/11/14 00:16:53;;;;;;;10.50;8.50;;;;;;;;;;5012840;28;20236;-82
2022/11/14 00:19:20;;;;;;;10.80;7.63;;;;;;;;;;5012702;28;20214;-82
2022/11/14 00:21:51;;;;;;;13.70;9.27;;;;;;;;;;5012944;28;20237;-82
2022/11/14 00:24:18;;;;;;;10.97;7.83;;;;;;;;;;5012505;28;20714;-82
2022/11/14 00:26:45;;;;;;;15.10;9.40;;;;;;;;;;5012566;28;20306;-82
2022/11/14 00:29:12;;;;;;;10.50;8.60;;;;;;;;;;5012974;28;20214;-82
2022/11/14 00:31:40;;;;;;;10.87;8.13;;;;;;;;;;5012392;28;20227;-82
2022/11/14 00:34:07;;;;;;;12.17;8.83;;;;;;;;;;5013059;28;20593;-82
2022/11/14 00:36:34;;;;;;;13.43;8.73;;;;;;;;;;5012376;28;20230;-82
2022/11/14 00:39:02;;;;;;;12.00;9.50;;;;;;;;;;5011768;28;20577;-82
2022/11/14 00:41:29;;;;;;;12.17;8.60;;;;;;;;;;5011828;28;20238;-82
2022/11/14 00:43:56;;;;;;;11.93;8.80;;;;;;;;;;5012182;28;20615;-83
2022/11/14 00:46:24;;;;;;;14.10;8.63;;;;;;;;;;5011163;28;20241;-82
2022/11/14 00:48:51;;;;;;;9.80;8.13;;;;;;;;;;5012126;28;20214;-83
2022/11/14 00:51:18;;;;;;;12.73;8.67;;;;;;;;;;5012424;28;20235;-82
2022/11/14 00:53:45;;;;;;;9.20;7.17;;;;;;;;;;5011444;28;20230;-83
2022/11/14 00:56:13;;;;;;;9.13;7.50;;;;;;;;;;5011265;28;20230;-83
2022/11/14 00:58:40;;;;;;;8.47;7.47;;;;;;;;;;5011602;28;20204;-82
2022/11/14 01:01:07;;;;;;;11.43;7.60;;;;;;;;;;5011312;28;20238;-82
2022/11/14 01:03:35;;;;;;;11.00;7.43;;;;;;;;;;5010847;28;20228;-82
2022/11/14 01:06:04;;;;;;;7.80;6.90;;;;;;;;;;5010239;28;20235;-82
2022/11/14 01:08:31;;;;;;;7.63;6.83;;;;;;;;;;5010388;28;20205;-83
2022/11/14 01:10:59;;;;;;;8.03;6.40;;;;;;;;;;5009779;28;20238;-82
2022/11/14 01:13:31;;;;;;;8.13;6.60;;;;;;;;;;5010986;28;20757;-82
2022/11/14 01:16:01;;;;;;;6.60;5.87;;;;;;;;;;5010781;28;20240;-82
2022/11/14 01:18:28;;;;;;;10.30;7.53;;;;;;;;;;5010242;28;20297;-82
2022/11/14 01:20:55;;;;;;;12.63;8.30;;;;;;;;;;5010477;28;20702;-82
2022/11/14 01:23:22;;;;;;;8.90;6.63;;;;;;;;;;5009857;28;20264;-83
2022/11/14 01:25:49;;;;;;;8.50;6.77;;;;;;;;;;5010198;28;20207;-83
2022/11/14 01:28:18;;;;;;;7.67;6.60;;;;;;;;;;5011245;28;20297;-82
2022/11/14 01:30:46;;;;;;;7.83;6.47;;;;;;;;;;5011497;28;20195;-83
2022/11/14 01:33:13;;;;;;;9.40;7.40;;;;;;;;;;5010699;28;20730;-82
2022/11/14 01:35:40;;;;;;;10.40;7.30;;;;;;;;;;5022680;23;20242;-81
2022/11/14 01:38:07;;;;;;;7.73;6.33;;;;;;;;;;5004689;28;20214;-82
2022/11/14 01:40:34;;;;;;;8.20;6.83;;;;;;;;;;4996234;28;20211;-81
2022/11/14 01:43:16;;;;;;;7.80;6.63;;;;;;;;;;5009868;28;20225;-82
2022/11/14 01:45:53;;;;;;;10.13;7.20;;;;;;;;;;4995821;28;20226;-81
2022/11/14 01:48:21;;;;;;;9.50;7.10;;;;;;;;;;4991934;28;20206;-82
2022/11/14 01:50:51;;;;;;;10.80;8.13;;;;;;;;;;4986097;28;20671;-81
2022/11/14 01:53:18;;;;;;;9.70;6.93;;;;;;;;;;5011864;28;20203;-79
2022/11/14 01:55:45;;;;;;;9.80;6.73;;;;;;;;;;5017922;28;20226;-81
2022/11/14 01:58:12;;;;;;;8.90;6.80;;;;;;;;;;5025302;28;20197;-82
2022/11/14 02:00:39;;;;;;;9.63;7.10;;;;;;;;;;5019987;28;20568;-81
2022/11/14 02:03:08;;;;;;;7.50;6.27;;;;;;;;;;5027494;28;20208;-82
2022/11/14 02:05:35;;;;;;;8.30;6.17;;;;;;;;;;5027642;28;20233;-81
2022/11/14 02:08:02;;;;;;;7.93;6.13;;;;;;;;;;5024563;28;20218;-82
2022/11/14 02:10:29;;;;;;;7.13;6.00;;;;;;;;;;5011522;28;20214;-82
2022/11/14 02:12:57;;;;;;;7.27;5.70;;;;;;;;;;5016388;28;20239;-82
2022/11/14 02:15:25;;;;;;;7.07;6.37;;;;;;;;;;5021457;28;20219;-81
2022/11/14 02:17:52;;;;;;;6.63;5.70;;;;;;;;;;5021213;28;20576;-81
2022/11/14 02:20:21;;;;;;;6.77;5.60;;;;;;;;;;5028867;28;20199;-82
2022/11/14 02:22:48;;;;;;;9.63;5.63;;;;;;;;;;5029186;28;20725;-82
2022/11/14 02:25:17;;;;;;;8.37;6.30;;;;;;;;;;5023548;28;20247;-81
2022/11/14 02:27:44;;;;;;;6.37;5.57;;;;;;;;;;5029304;28;20661;-82
2022/11/14 02:30:13;;;;;;;6.37;5.70;;;;;;;;;;5030633;28;20212;-82
2022/11/14 02:32:40;;;;;;;7.47;5.60;;;;;;;;;;5032379;28;20757;-82
2022/11/14 02:35:08;;;;;;;8.37;6.33;;;;;;;;;;5024700;28;20246;-82
2022/11/14 02:37:36;;;;;;;9.77;6.23;;;;;;;;;;5014374;28;20241;-81
2022/11/14 02:40:03;;;;;;;9.03;6.57;;;;;;;;;;5015910;28;20203;-82
2022/11/14 02:42:30;;;;;;;9.77;6.40;;;;;;;;;;5014884;28;20254;-81
2022/11/14 02:44:57;;;;;;;8.63;6.23;;;;;;;;;;5014904;28;20231;-82
2022/11/14 02:47:25;;;;;;;11.00;7.30;;;;;;;;;;5021345;28;20234;-82
2022/11/14 02:49:52;;;;;;;7.43;6.50;;;;;;;;;;5030114;28;20204;-81
2022/11/14 02:52:19;;;;;;;8.37;6.53;;;;;;;;;;5033253;28;20242;-82
2022/11/14 02:54:47;;;;;;;7.97;6.33;;;;;;;;;;5025639;28;20205;-82
2022/11/14 02:57:14;;;;;;;7.03;6.17;;;;;;;;;;5033704;28;20338;-82
2022/11/14 02:59:41;;;;;;;8.37;6.60;;;;;;;;;;5032321;28;20223;-82
2022/11/14 03:02:09;;;;;;;9.27;6.80;;;;;;;;;;5019356;28;20239;-81
2022/11/14 03:04:36;;;;;;;7.83;6.37;;;;;;;;;;5026254;28;20229;-81
2022/11/14 03:07:03;;;;;;;10.03;7.57;;;;;;;;;;5016060;28;20246;-82
2022/11/14 03:09:30;;;;;;;13.53;8.30;;;;;;;;;;5022135;28;20208;-82
2022/11/14 03:11:58;;;;;;;9.37;6.87;;;;;;;;;;5029123;28;20241;-81
2022/11/14 03:14:25;;;;;;;7.73;6.63;;;;;;;;;;5029890;28;20660;-81
2022/11/14 03:16:55;;;;;;;8.03;6.60;;;;;;;;;;5019994;28;20698;-82
2022/11/14 03:19:22;;;;;;;10.60;7.73;;;;;;;;;;5025591;28;20208;-81
2022/11/14 03:21:49;;;;;;;8.47;6.87;;;;;;;;;;5028436;28;20238;-81
2022/11/14 03:24:16;;;;;;;7.47;6.17;;;;;;;;;;5016605;28;20235;-81
2022/11/14 03:26:43;;;;;;;8.50;6.47;;;;;;;;;;5030553;28;20309;-82
2022/11/14 03:29:12;;;;;;;7.60;6.10;;;;;;;;;;5014870;28;20215;-81
2022/11/14 03:31:39;;;;;;;8.20;6.17;;;;;;;;;;5027567;28;20245;-81
2022/11/14 03:34:06;;;;;;;7.40;5.83;;;;;;;;;;5018124;28;20200;-80
2022/11/14 03:36:34;;;;;;;6.70;6.00;;;;;;;;;;5033128;28;20249;-81
2022/11/14 03:39:01;;;;;;;10.20;7.20;;;;;;;;;;5031413;28;20206;-82
2022/11/14 03:41:28;;;;;;;9.20;7.03;;;;;;;;;;5030371;28;20231;-82
2022/11/14 03:43:55;;;;;;;8.70;7.03;;;;;;;;;;5033790;28;20599;-81
2022/11/14 03:46:24;;;;;;;8.03;7.00;;;;;;;;;;5024645;28;20649;-82
2022/11/14 03:48:51;;;;;;;11.10;7.80;;;;;;;;;;5031851;28;20206;-81
2022/11/14 03:51:18;;;;;;;9.40;7.60;;;;;;;;;;5023778;28;20250;-81
2022/11/14 03:53:45;;;;;;;15.87;8.57;;;;;;;;;;5032476;28;20217;-81
2022/11/14 03:56:12;;;;;;;13.57;9.23;;;;;;;;;;5032060;28;20241;-81
2022/11/14 03:58:39;;;;;;;14.33;10.30;;;;;;;;;;5015599;28;20583;-81
2022/11/14 04:01:06;;;;;;;16.30;10.63;;;;;;;;;;5028001;28;20253;-81
2022/11/14 04:03:34;;;;;;;18.23;12.47;;;;;;;;;;5026102;28;20223;-81
2022/11/14 04:06:02;;;;;;;17.57;11.80;;;;;;;;;;5029581;28;20239;-82
2022/11/14 04:08:29;;;;;;;22.47;13.23;;;;;;;;;;5029960;28;20214;-82
2022/11/14 04:10:56;;;;;;;25.63;16.53;;;;;;;;;;5032784;28;20690;-81
2022/11/14 04:13:23;;;;;;;28.93;16.90;;;;;;;;;;5042238;28;20291;-81
2022/11/14 04:15:54;;;;;;;29.13;17.13;;;;;;;;;;5052134;28;20238;-81
2022/11/14 04:18:22;;;;;;;31.90;18.27;;;;;;;;;;5049844;28;20605;-81
2022/11/14 04:20:50;;;;;;;31.80;19.17;;;;;;;;;;5033399;28;20674;-81
2022/11/14 04:23:17;;;;;;;36.17;20.27;;;;;;;;;;5043775;28;20198;-82
2022/11/14 04:25:45;;;;;;;45.70;21.77;;;;;;;;;;5027724;28;20225;-81
2022/11/14 04:28:12;;;;;;;37.27;21.03;;;;;;;;;;5039616;28;20198;-81
2022/11/14 04:30:39;;;;;;;39.07;20.20;;;;;;;;;;5039079;28;20210;-81
2022/11/14 04:33:06;;;;;;;41.77;22.20;;;;;;;;;;5031986;28;20203;-82
2022/11/14 04:35:33;;;;;;;47.40;22.60;;;;;;;;;;5030899;28;20717;-81
2022/11/14 04:38:01;;;;;;;47.50;23.63;;;;;;;;;;5032031;28;20222;-81
2022/11/14 04:40:28;;;;;;;51.40;24.40;;;;;;;;;;5030435;28;20241;-81
2022/11/14 04:42:55;;;;;;;53.77;24.07;;;;;;;;;;5022057;28;20227;-81
2022/11/14 04:45:22;;;;;;;55.17;26.63;;;;;;;;;;5023799;28;20237;-81
2022/11/14 04:47:49;;;;;;;54.77;25.70;;;;;;;;;;5028411;28;20230;-81
2022/11/14 04:50:17;;;;;;;64.23;27.40;;;;;;;;;;5031910;28;20216;-81
2022/11/14 04:52:44;;;;;;;54.70;27.47;;;;;;;;;;5029555;28;20240;-81
2022/11/14 04:55:12;;;;;;;58.83;28.57;;;;;;;;;;5027069;28;20221;-81
2022/11/14 04:57:39;;;;;;;62.30;28.03;;;;;;;;;;5030943;28;20243;-82
2022/11/14 05:00:07;;;;;;;64.73;29.23;;;;;;;;;;5032265;28;20216;-82
2022/11/14 05:02:34;;;;;;;67.77;29.83;;;;;;;;;;5029818;28;20231;-82
2022/11/14 05:05:01;;;;;;;60.13;28.07;;;;;;;;;;5028981;28;20237;-82
2022/11/14 05:07:28;;;;;;;69.83;31.17;;;;;;;;;;5023166;28;20663;-82
2022/11/14 05:09:55;;;;;;;67.83;29.57;;;;;;;;;;5031380;28;20657;-81
2022/11/14 05:12:24;;;;;;;61.43;28.97;;;;;;;;;;5031282;28;20663;-82
2022/11/14 05:14:51;;;;;;;60.33;27.30;;;;;;;;;;5027342;28;20214;-82
2022/11/14 05:17:18;;;;;;;64.83;28.37;;;;;;;;;;5030794;28;20233;-82
2022/11/14 05:19:45;;;;;;;54.50;28.60;;;;;;;;;;5024287;28;20205;-82
2022/11/14 05:22:12;;;;;;;61.07;28.27;;;;;;;;;;5030777;28;20255;-81
2022/11/14 05:24:39;;;;;;;59.20;27.73;;;;;;;;;;5030957;28;20780;-81
2022/11/14 05:27:06;;;;;;;59.93;30.27;;;;;;;;;;5030554;28;20230;-81
2022/11/14 05:29:34;;;;;;;64.67;28.53;;;;;;;;;;5031152;28;20210;-81
2022/11/14 05:32:02;;;;;;;63.43;29.07;;;;;;;;;;5028502;28;20230;-81
2022/11/14 05:34:29;;;;;;;57.70;25.97;;;;;;;;;;5030894;28;20225;-81
2022/11/14 05:36:56;;;;;;;42.83;21.53;;;;;;;;;;5030638;28;20235;-81
2022/11/14 05:39:23;;;;;;;42.17;20.23;;;;;;;;;;5029952;28;20209;-81
2022/11/14 05:41:50;;;;;;;45.53;21.37;;;;;;;;;;5021096;28;20237;-81
2022/11/14 05:44:17;;;;;;;49.07;24.80;;;;;;;;;;5029581;28;20206;-82
2022/11/14 05:46:45;;;;;;;42.77;22.67;;;;;;;;;;5030432;28;20259;-81
2022/11/14 05:49:12;;;;;;;63.13;25.97;;;;;;;;;;5031199;28;20213;-81
2022/11/14 05:51:40;;;;;;;47.80;23.17;;;;;;;;;;5030810;28;20263;-81
2022/11/14 05:54:07;;;;;;;53.40;26.30;;;;;;;;;;5031220;28;20214;-81
2022/11/14 05:56:34;;;;;;;52.60;25.97;;;;;;;;;;5030351;28;20614;-81
2022/11/14 05:59:01;;;;;;;58.90;26.80;;;;;;;;;;5030875;28;20238;-81
2022/11/14 06:01:28;;;;;;;56.27;26.47;;;;;;;;;;5030469;28;20334;-81
2022/11/14 06:03:56;;;;;;;55.17;27.97;;;;;;;;;;5030877;28;20209;-81
2022/11/14 06:06:24;;;;;;;57.80;26.83;;;;;;;;;;5033389;28;20238;-82
2022/11/14 06:08:51;;;;;;;54.73;26.80;;;;;;;;;;5034768;28;20214;-81
2022/11/14 06:11:19;;;;;;;55.13;26.50;;;;;;;;;;5034437;28;20233;-81
2022/11/14 06:13:46;;;;;;;59.17;25.57;;;;;;;;;;5035083;28;20206;-81
2022/11/14 06:16:15;;;;;;;54.93;26.40;;;;;;;;;;5033993;28;20264;-81
2022/11/14 06:18:42;;;;;;;48.63;24.60;;;;;;;;;;5034638;28;20207;-81
2022/11/14 06:21:12;;;;;;;52.17;25.47;;;;;;;;;;5034274;28;20241;-81
2022/11/14 06:23:40;;;;;;;52.60;25.03;;;;;;;;;;5034923;28;20224;-79
2022/11/14 06:26:08;;;;;;;52.63;27.60;;;;;;;;;;5034132;28;20713;-78
2022/11/14 06:28:35;;;;;;;54.80;26.17;;;;;;;;;;5034181;28;20210;-81
2022/11/14 06:31:02;;;;;;;54.63;26.10;;;;;;;;;;5034120;28;20505;-78
2022/11/14 06:33:30;;;;;;;54.43;27.20;;;;;;;;;;5034208;28;20206;-78
2022/11/14 06:36:00;;;;;;;51.80;25.83;;;;;;;;;;5034076;28;20238;-78
2022/11/14 06:38:29;;;;;;;48.77;25.27;;;;;;;;;;5034241;28;20210;-80
2022/11/14 06:41:02;;;;;;;50.10;25.33;;;;;;;;;;5033718;28;20241;-78
2022/11/14 06:43:29;;;;;;;54.93;25.57;;;;;;;;;;5033668;28;20205;-79
2022/11/14 06:45:56;;;;;;;46.93;24.87;;;;;;;;;;5032519;28;20288;-79
2022/11/14 06:48:23;;;;;;;51.03;24.07;;;;;;;;;;5033467;28;20613;-79
2022/11/14 06:50:53;;;;;;;41.07;24.63;;;;;;;;;;5033845;28;20233;-79
2022/11/14 06:53:20;;;;;;;49.73;25.47;;;;;;;;;;5034209;28;20233;-79
2022/11/14 06:55:54;;;;;;;45.77;23.60;;;;;;;;;;5034072;28;20238;-78
2022/11/14 06:58:21;;;;;;;47.47;24.93;;;;;;;;;;5033536;28;20234;-78
2022/11/14 07:00:48;;;;;;;44.77;24.60;;;;;;;;;;5033441;28;20210;-79
2022/11/14 07:03:16;;;;;;;51.03;25.10;;;;;;;;;;5034022;28;20210;-79
2022/11/14 07:05:43;;;;;;;50.97;24.47;;;;;;;;;;5033474;28;20223;-79
2022/11/14 07:08:10;;;;;;;44.90;24.47;;;;;;;;;;5033831;28;20221;-79
2022/11/14 07:10:37;;;;;;;42.73;23.63;;;;;;;;;;5033252;28;20756;-78
2022/11/14 07:13:05;;;;;;;44.97;22.70;;;;;;;;;;5034095;28;20203;-79
2022/11/14 07:15:32;;;;;;;45.13;23.60;;;;;;;;;;5033267;28;20230;-78
2022/11/14 07:17:59;;;;;;;41.33;22.30;;;;;;;;;;5032370;28;20214;-79
2022/11/14 07:20:26;;;;;;;50.10;22.90;;;;;;;;;;5033571;28;20211;-79
2022/11/14 07:22:54;;;;;;;43.40;21.43;;;;;;;;;;5033413;28;20238;-79
2022/11/14 07:25:21;;;;;;;37.00;20.33;;;;;;;;;;5033413;28;20234;-80
2022/11/14 07:27:48;;;;;;;42.97;20.23;;;;;;;;;;5032966;28;20752;-80
2022/11/14 07:30:17;;;;;;;43.87;20.73;;;;;;;;;;5026174;28;20762;-80
2022/11/14 07:32:44;;;;;;;44.73;21.60;;;;;;;;;;5024950;28;20238;-80
2022/11/14 07:35:11;;;;;;;45.77;22.23;;;;;;;;;;5032722;28;20227;-80
2022/11/14 07:37:38;;;;;;;40.30;21.63;;;;;;;;;;5032622;28;20242;-76
2022/11/14 07:40:06;;;;;;;41.13;21.77;;;;;;;;;;5033241;28;20203;-77
2022/11/14 07:42:33;;;;;;;41.17;22.30;;;;;;;;;;5032310;28;20726;-77
2022/11/14 07:45:00;;;;;;;43.20;22.70;;;;;;;;;;5032680;28;20242;-77
2022/11/14 07:47:28;;;;;;;41.57;22.00;;;;;;;;;;5032236;28;20234;-77
2022/11/14 07:49:55;;;;;;;34.77;20.57;;;;;;;;;;5032506;28;20297;-77
2022/11/14 07:52:23;;;;;;;38.40;20.60;;;;;;;;;;5031595;28;20233;-77
2022/11/14 07:54:50;;;;;;;41.07;20.53;;;;;;;;;;5032531;28;20210;-77
2022/11/14 07:57:17;;;;;;;35.63;19.17;;;;;;;;;;5032362;28;20234;-77
2022/11/14 07:59:44;;;;;;;37.40;19.07;;;;;;;;;;5032272;28;20675;-77
2022/11/14 08:02:12;;;;;;;31.37;18.20;;;;;;;;;;5029467;28;20227;-77
2022/11/14 08:04:41;;;;;;;35.00;19.03;;;;;;;;;;5024138;28;20671;-77
2022/11/14 08:07:08;;;;;;;33.37;18.60;;;;;;;;;;5031891;28;20245;-78
2022/11/14 08:09:35;;;;;;;31.93;18.53;;;;;;;;;;5031749;28;20207;-77
2022/11/14 08:12:02;;;;;;;33.47;17.70;;;;;;;;;;5032310;28;20242;-77
2022/11/14 08:14:29;;;;;;;37.63;19.23;;;;;;;;;;5031437;28;20213;-77
2022/11/14 08:16:56;;;;;;;36.60;18.70;;;;;;;;;;5031298;28;20242;-77
2022/11/14 08:19:23;;;;;;;32.00;18.93;;;;;;;;;;5031993;28;20203;-78
2022/11/14 08:21:52;;;;;;;31.17;18.27;;;;;;;;;;5031730;28;20234;-78
2022/11/14 08:24:19;;;;;;;31.53;17.43;;;;;;;;;;5032275;28;20210;-77
2022/11/14 08:26:46;;;;;;;31.70;18.57;;;;;;;;;;5031561;28;20249;-78
2022/11/14 08:29:13;;;;;;;28.93;17.30;;;;;;;;;;5031442;28;20218;-77
2022/11/14 08:31:40;;;;;;;28.70;16.53;;;;;;;;;;5031400;28;20235;-78
2022/11/14 08:34:08;;;;;;;24.30;15.87;;;;;;;;;;5032180;28;20202;-77
2022/11/14 08:36:35;;;;;;;25.13;15.40;;;;;;;;;;5031076;28;20249;-78
2022/11/14 08:39:04;;;;;;;22.33;14.33;;;;;;;;;;5031787;28;20206;-77
2022/11/14 08:41:31;;;;;;;26.97;16.30;;;;;;;;;;5031091;28;20242;-77
2022/11/14 08:43:58;;;;;;;25.57;15.83;;;;;;;;;;5031654;28;20210;-77
2022/11/14 08:46:25;;;;;;;23.33;14.27;;;;;;;;;;5031259;28;20250;-77
2022/11/14 08:48:52;;;;;;;28.00;16.10;;;;;;;;;;5031861;28;20214;-77
2022/11/14 08:51:19;;;;;;;28.97;17.33;;;;;;;;;;5021867;28;20238;-77
2022/11/14 08:53:46;;;;;;;25.63;16.37;;;;;;;;;;5016866;28;20203;-77
2022/11/14 08:56:15;;;;;;;25.97;15.37;;;;;;;;;;5030629;28;20246;-77
2022/11/14 08:58:42;;;;;;;28.60;17.67;;;;;;;;;;5031023;28;20674;-77
2022/11/14 09:01:10;;;;;;;23.27;14.87;;;;;;;;;;5030525;28;20718;-77
2022/11/14 09:03:37;;;;;;;24.43;16.33;;;;;;;;;;5031038;28;20202;-77
2022/11/14 09:06:04;;;;;;;21.10;15.00;;;;;;;;;;5022542;28;20238;-77
2022/11/14 09:08:31;;;;;;;23.90;14.57;;;;;;;;;;5029455;28;20210;-77
2022/11/14 09:11:00;;;;;;;24.90;15.20;;;;;;;;;;5030808;28;20234;-77
2022/11/14 09:13:29;;;;;;;21.70;14.60;;;;;;;;;;5016541;28;20203;-77
2022/11/14 09:15:56;;;;;;;24.00;15.27;;;;;;;;;;5030290;28;20238;-77
2022/11/14 09:18:23;;;;;;;21.67;14.83;;;;;;;;;;5030936;28;20591;-77
2022/11/14 09:20:50;;;;;;;20.33;13.87;;;;;;;;;;5030743;28;20230;-77
2022/11/14 09:23:17;;;;;;;26.17;14.80;;;;;;;;;;5023502;28;20214;-77
2022/11/14 09:25:44;;;;;;;22.97;14.70;;;;;;;;;;5030555;28;20231;-77
2022/11/14 09:28:12;;;;;;;21.10;13.67;;;;;;;;;;5030951;28;20203;-77
2022/11/14 09:30:40;;;;;;;23.53;13.83;;;;;;;;;;5030508;28;20219;-78
2022/11/14 09:33:07;;;;;;;20.70;13.47;;;;;;;;;;5031181;28;20284;-77
2022/11/14 09:35:36;;;;;;;22.57;14.03;;;;;;;;;;5029920;28;20233;-78
2022/11/14 09:38:04;;;;;;;20.53;13.23;;;;;;;;;;5030887;28;20678;-76
2022/11/14 09:40:32;;;;;;;19.37;13.37;;;;;;;;;;5029527;28;20215;-77
2022/11/14 09:43:04;;;;;;;21.57;13.47;;;;;;;;;;5030639;28;20608;-76
2022/11/14 09:45:31;;;;;;;19.50;13.37;;;;;;;;;;5029951;28;20226;-78
2022/11/14 09:48:05;;;;;;;19.57;13.70;;;;;;;;;;5030967;28;20206;-77
2022/11/14 09:50:34;;;;;;;21.43;12.50;;;;;;;;;;5030112;28;20198;-77
2022/11/14 09:53:03;;;;;;;20.33;12.53;;;;;;;;;;5030592;28;20218;-77
2022/11/14 09:55:31;;;;;;;17.63;11.70;;;;;;;;;;5029538;28;20233;-77
2022/11/14 09:57:58;;;;;;;18.00;12.77;;;;;;;;;;5030493;28;20557;-76
2022/11/14 10:00:26;;;;;;;16.77;11.50;;;;;;;;;;5030331;28;20670;-76
2022/11/14 10:03:00;;;;;;;18.83;12.83;;;;;;;;;;5030086;28;20623;-76
2022/11/14 10:05:40;;;;;;;17.73;13.10;;;;;;;;;;5029966;28;20714;-76
2022/11/14 10:08:16;;;;;;;17.07;12.57;;;;;;;;;;5030227;28;20254;-76
2022/11/14 10:10:49;;;;;;;17.07;12.37;;;;;;;;;;5030331;28;20278;-77
2022/11/14 10:13:22;;;;;;;16.77;11.80;;;;;;;;;;5030392;28;20214;-76
2022/11/14 10:15:53;;;;;;;20.40;13.50;;;;;;;;;;5029452;28;20248;-77
2022/11/14 10:18:29;;;;;;;17.87;11.70;;;;;;;;;;5029886;28;20206;-77
2022/11/14 10:20:58;;;;;;;16.63;11.60;;;;;;;;;;5030096;28;20234;-77
2022/11/14 10:23:30;;;;;;;15.40;10.23;;;;;;;;;;5029830;28;20206;-77
2022/11/14 10:26:05;;;;;;;14.43;10.40;;;;;;;;;;5029707;28;20238;-77
2022/11/14 10:28:48;;;;;;;16.80;11.07;;;;;;;;;;5029684;28;20217;-77
2022/11/14 10:31:20;;;;;;;14.77;11.17;;;;;;;;;;5022012;28;20235;-77
2022/11/14 10:33:51;;;;;;;14.20;11.00;;;;;;;;;;5023045;28;20226;-77
2022/11/14 10:36:24;;;;;;;15.93;10.80;;;;;;;;;;5029555;28;20235;-77
2022/11/14 10:38:53;;;;;;;14.80;10.13;;;;;;;;;;5030101;28;20222;-77
2022/11/14 10:41:20;;;;;;;13.40;9.57;;;;;;;;;;5029423;28;20237;-77
2022/11/14 10:43:48;;;;;;;11.60;9.33;;;;;;;;;;5030260;28;20214;-77
2022/11/14 10:46:17;;;;;;;12.87;9.40;;;;;;;;;;5027318;28;20257;-77
2022/11/14 10:48:45;;;;;;;12.90;8.63;;;;;;;;;;5029523;28;20202;-77
2022/11/14 10:51:15;;;;;;;10.20;8.50;;;;;;;;;;5030946;28;20317;-78
2022/11/14 10:53:49;;;;;;;11.30;9.03;;;;;;;;;;5033453;28;20210;-77
2022/11/14 10:56:16;;;;;;;11.70;8.83;;;;;;;;;;5029620;28;20254;-77
2022/11/14 10:58:44;;;;;;;13.60;8.27;;;;;;;;;;5027766;28;20257;-77
2022/11/14 11:01:30;;;;;;;9.57;7.80;;;;;;;;;;5033308;28;20246;-77
2022/11/14 11:03:57;;;;;;;12.17;8.83;;;;;;;;;;5032103;28;20585;-77
2022/11/14 11:06:28;;;;;;;11.00;9.43;;;;;;;;;;5032563;28;20238;-77
2022/11/14 11:11:41;;;;;;;10.50;9.03;;;;;;;;;;5033176;28;20376;-77
2022/11/14 11:14:16;;;;;;;11.40;8.67;;;;;;;;;;5033559;28;20210;-77
2022/11/14 11:16:43;;;;;;;10.27;8.37;;;;;;;;;;5032609;28;20373;-77
2022/11/14 11:19:23;;;;;;;6.03;5.43;;;;;;;;;;5033429;28;20210;-77
2022/11/14 11:21:51;;;;;;;3.70;3.40;;;;;;;;;;5028998;28;20237;-77
2022/11/14 11:24:32;;;;;;;3.23;2.93;;;;;;;;;;5032923;28;20206;-79
2022/11/14 11:27:21;;;;;;;3.83;3.43;;;;;;;;;;5031291;28;20257;-77
2022/11/14 11:29:48;;;;;;;4.37;3.97;;;;;;;;;;5025370;28;20659;-76
2022/11/14 11:32:24;;;;;;;5.23;3.50;;;;;;;;;;5032599;28;20326;-76
2022/11/14 11:34:52;;;;;;;4.30;3.83;;;;;;;;;;5032680;28;20280;-77
2022/11/14 11:37:21;;;;;;;3.97;3.03;;;;;;;;;;5031921;28;20230;-76
2022/11/14 11:39:50;;;;;;;2.97;2.70;;;;;;;;;;5032973;28;20214;-78
2022/11/14 11:42:20;;;;;;;2.23;2.03;;;;;;;;;;5032173;28;20231;-77
2022/11/14 11:44:49;;;;;;;2.90;2.70;;;;;;;;;;5032374;28;20211;-76
2022/11/14 11:47:17;;;;;;;3.43;2.90;;;;;;;;;;5032234;28;20230;-77
2022/11/14 11:49:45;;;;;;;3.57;3.07;;;;;;;;;;5032463;28;20214;-76
2022/11/14 11:52:13;;;;;;;2.50;2.30;;;;;;;;;;5032270;28;20729;-77
2022/11/14 11:54:48;;;;;;;2.33;2.20;;;;;;;;;;5032207;28;20446;-77
2022/11/14 11:57:18;;;;;;;2.60;2.40;;;;;;;;;;5032096;28;20230;-77
2022/11/14 11:59:48;;;;;;;3.30;3.00;;;;;;;;;;5028535;28;20746;-76
2022/11/14 12:02:22;;;;;;;2.07;1.97;;;;;;;;;;5011475;28;20238;-76
2022/11/14 12:04:50;;;;;;;2.50;2.30;;;;;;;;;;5012289;28;20238;-75
2022/11/14 12:07:18;;;;;;;3.60;2.30;;;;;;;;;;5011883;28;20610;-76
2022/11/14 12:09:45;;;;;;;1.47;1.37;;;;;;;;;;5012475;28;20208;-76
2022/11/14 12:12:17;;;;;;;2.30;2.10;;;;;;;;;;5012074;28;20239;-76
2022/11/14 12:14:59;;;;;;;2.93;2.37;;;;;;;;;;5012284;28;20238;-76
2022/11/14 12:17:38;;;;;;;5.10;2.30;;;;;;;;;;5011745;28;20231;-76
2022/11/14 12:20:16;;;;;;;2.40;2.20;;;;;;;;;;5012647;28;20214;-76
2022/11/14 12:23:01;;;;;;;2.27;2.07;;;;;;;;;;5011850;28;20239;-76
2022/11/14 12:25:49;;;;;;;2.20;2.00;;;;;;;;;;5011510;28;20605;-77
2022/11/14 12:28:23;;;;;;;2.00;1.90;;;;;;;;;;5011537;28;20242;-77
2022/11/14 12:30:56;;;;;;;2.23;1.70;;;;;;;;;;5011652;28;20238;-77
2022/11/14 12:33:25;;;;;;;2.60;2.40;;;;;;;;;;5011966;28;20191;-77
2022/11/14 12:35:54;;;;;;;2.10;1.90;;;;;;;;;;5011385;28;20235;-79
2022/11/14 12:38:21;;;;;;;2.57;2.33;;;;;;;;;;5011953;28;20199;-77
2022/11/14 12:40:53;;;;;;;2.37;2.17;;;;;;;;;;5011401;28;20234;-77
2022/11/14 12:43:38;;;;;;;2.50;2.30;;;;;;;;;;5011691;28;20214;-77
2022/11/14 12:46:08;;;;;;;2.47;2.30;;;;;;;;;;5018983;28;20238;-77
2022/11/14 12:48:36;;;;;;;2.10;1.90;;;;;;;;;;5030540;28;20211;-76
2022/11/14 12:51:04;;;;;;;2.30;2.10;;;;;;;;;;5031095;28;20633;-77
2022/11/14 12:53:41;;;;;;;2.73;1.90;;;;;;;;;;5031120;28;20203;-77
2022/11/14 12:56:13;;;;;;;3.60;2.47;;;;;;;;;;5031022;28;20344;-77
2022/11/14 12:58:58;;;;;;;2.43;2.33;;;;;;;;;;5030972;28;20199;-77
2022/11/14 13:01:38;;;;;;;2.20;2.00;;;;;;;;;;5030398;28;20234;-77
2022/11/14 13:04:18;;;;;;;2.13;2.03;;;;;;;;;;5031351;28;20210;-76
2022/11/14 13:06:49;;;;;;;2.37;2.17;;;;;;;;;;5030656;28;20238;-77
2022/11/14 13:09:32;;;;;;;2.53;2.10;;;;;;;;;;5030766;28;20207;-77
2022/11/14 13:23:39;;;;;;;2.37;2.17;;;;;;;;;;5008918;28;20230;-77
2022/11/14 13:26:21;;;;;;;2.23;2.03;;;;;;;;;;5010747;28;20239;-77
2022/11/14 13:28:49;;;;;;;2.97;2.20;;;;;;;;;;5010835;28;20206;-77
2022/11/14 13:31:20;;;;;;;4.17;2.00;;;;;;;;;;5010167;28;20241;-77
2022/11/14 13:33:49;;;;;;;2.93;2.03;;;;;;;;;;5011291;28;20628;-77
2022/11/14 13:36:21;;;;;;;2.30;2.10;;;;;;;;;;5023958;23;20234;-84
2022/11/14 13:39:00;;;;;;;2.67;2.47;;;;;;;;;;5023910;28;20574;-86
2022/11/14 13:41:55;;;;;;;2.80;2.50;;;;;;;;;;5031438;28;20262;-87
2022/11/14 13:44:46;;;;;;;2.77;2.43;;;;;;;;;;5029917;28;20218;-87
2022/11/14 13:47:20;;;;;;;2.23;2.07;;;;;;;;;;5031005;28;20230;-86
2022/11/14 13:49:54;;;;;;;3.20;2.90;;;;;;;;;;5028646;28;20207;-86
2022/11/14 13:52:22;;;;;;;4.30;3.90;;;;;;;;;;5031795;28;20264;-87
2022/11/14 13:54:50;;;;;;;4.73;4.20;;;;;;;;;;5031991;28;20221;-86
2022/11/14 13:57:23;;;;;;;3.23;2.97;;;;;;;;;;5031577;28;20238;-87
2022/11/14 13:59:55;;;;;;;2.73;2.47;;;;;;;;;;5031975;28;20208;-87
2022/11/14 14:02:50;;;;;;;2.50;2.30;;;;;;;;;;5031358;28;20238;-87
2022/11/14 14:05:22;;;;;;;3.50;2.27;;;;;;;;;;5032119;28;20202;-87
2022/11/14 14:07:53;;;;;;;2.90;2.40;;;;;;;;;;5023910;28;20602;-87
2022/11/14 14:10:26;;;;;;;2.60;2.40;;;;;;;;;;5032121;28;20658;-87
2022/11/14 14:13:04;;;;;;;2.87;2.20;;;;;;;;;;5031585;28;20438;-87
2022/11/14 14:15:34;;;;;;;2.40;2.20;;;;;;;;;;5031212;28;20206;-87
2022/11/14 14:18:07;;;;;;;3.00;2.27;;;;;;;;;;5031661;28;20702;-87
2022/11/14 14:20:40;;;;;;;2.37;2.17;;;;;;;;;;5031353;28;20279;-87
2022/11/14 14:23:18;;;;;;;3.03;2.40;;;;;;;;;;5031760;28;20268;-87
2022/11/14 14:25:48;;;;;;;3.57;2.67;;;;;;;;;;5031151;28;20263;-86
2022/11/14 14:28:20;;;;;;;2.40;2.20;;;;;;;;;;5033832;28;20225;-86
2022/11/14 14:31:03;;;;;;;2.07;1.97;;;;;;;;;;5027554;28;20203;-87
2022/11/14 14:33:39;;;;;;;3.33;3.03;;;;;;;;;;5036403;28;20242;-86
2022/11/14 14:36:17;;;;;;;2.90;2.30;;;;;;;;;;5028125;28;20776;-86
2022/11/14 14:38:45;;;;;;;2.00;1.90;;;;;;;;;;5036509;28;20670;-86
2022/11/14 14:41:13;;;;;;;2.77;2.57;;;;;;;;;;5034842;28;20231;-86
2022/11/14 14:43:41;;;;;;;2.77;2.57;;;;;;;;;;5037725;28;20206;-86
2022/11/14 14:46:09;;;;;;;2.13;2.00;;;;;;;;;;5040285;28;20238;-85
2022/11/14 14:48:39;;;;;;;4.70;2.20;;;;;;;;;;5034481;28;20234;-86
2022/11/14 14:51:06;;;;;;;2.20;2.10;;;;;;;;;;5014946;28;20238;-86
2022/11/14 14:53:36;;;;;;;4.67;2.00;;;;;;;;;;5017216;28;20210;-86
2022/11/14 14:56:04;;;;;;;2.23;2.10;;;;;;;;;;5033204;28;20239;-85